createdAt,value
2019-03-25T00:00:31.314Z,43.30
2019-03-25T00:03:02.073Z,43.30
2019-03-25T00:05:32.763Z,43.40
2019-03-25T00:08:03.490Z,43.30
2019-03-25T00:10:34.562Z,42.80
2019-03-25T00:13:15.572Z,43.00
2019-03-25T00:15:47.207Z,42.90
2019-03-25T00:18:18.429Z,42.60
2019-03-25T00:20:58.194Z,42.80
2019-03-25T00:23:28.897Z,42.90
2019-03-25T00:25:59.686Z,42.40
2019-03-25T00:28:30.291Z,42.60
2019-03-25T00:31:00.946Z,42.40
2019-03-25T00:33:31.732Z,42.20
2019-03-25T00:36:02.410Z,42.20
2019-03-25T00:38:32.980Z,42.20
2019-03-25T00:41:03.627Z,42.50
2019-03-25T00:43:34.280Z,42.40
2019-03-25T00:46:05.056Z,42.60
2019-03-25T00:48:35.724Z,42.40
2019-03-25T00:51:06.420Z,42.70
2019-03-25T00:53:37.068Z,42.80
2019-03-25T00:56:07.810Z,42.70
2019-03-25T00:58:39.465Z,42.60
2019-03-25T01:01:10.305Z,42.30
2019-03-25T01:03:41.497Z,42.00
2019-03-25T01:06:12.295Z,42.50
2019-03-25T01:08:42.992Z,42.00
2019-03-25T01:11:13.793Z,42.40
2019-03-25T01:13:44.373Z,42.30
2019-03-25T01:16:16.086Z,42.30
2019-03-25T01:18:46.759Z,42.40
2019-03-25T01:21:17.510Z,42.50
2019-03-25T01:23:48.662Z,42.70
2019-03-25T01:26:19.828Z,42.80
2019-03-25T01:28:51.046Z,43.00
2019-03-25T01:31:21.635Z,42.60
2019-03-25T01:33:52.304Z,42.70
2019-03-25T01:36:22.894Z,42.80
2019-03-25T01:38:53.534Z,42.40
2019-03-25T01:41:24.230Z,42.60
2019-03-25T01:43:54.863Z,42.90
2019-03-25T01:46:25.882Z,42.60
2019-03-25T01:48:56.550Z,42.50
2019-03-25T01:51:27.186Z,42.70
2019-03-25T01:53:57.900Z,42.70
2019-03-25T01:56:28.496Z,42.70
2019-03-25T01:58:59.211Z,42.80
2019-03-25T02:01:29.827Z,41.90
2019-03-25T02:04:00.552Z,42.60
2019-03-25T02:06:31.302Z,42.20
2019-03-25T02:09:02.022Z,42.20
2019-03-25T02:11:32.640Z,42.50
2019-03-25T02:14:03.730Z,42.20
2019-03-25T02:16:35.835Z,41.60
2019-03-25T02:19:06.586Z,41.60
2019-03-25T02:21:37.146Z,42.40
2019-03-25T02:24:07.969Z,57.00
2019-03-25T02:26:38.541Z,62.00
2019-03-25T02:29:09.173Z,65.70
2019-03-25T02:31:40.381Z,66.40
2019-03-25T02:34:11.022Z,64.40
2019-03-25T02:36:41.668Z,66.90
2019-03-25T02:39:12.484Z,66.50
2019-03-25T02:41:43.136Z,67.60
2019-03-25T02:44:13.757Z,67.80
2019-03-25T02:46:44.368Z,67.80
2019-03-25T02:49:15.221Z,68.50
2019-03-25T02:51:46.885Z,68.90
2019-03-25T02:54:17.512Z,68.80
2019-03-25T02:56:48.198Z,68.80
2019-03-25T02:59:19.609Z,68.70
2019-03-25T03:01:50.233Z,68.60
2019-03-25T03:04:21.293Z,68.10
2019-03-25T03:06:52.020Z,68.10
2019-03-25T03:09:22.712Z,68.20
2019-03-25T03:11:53.361Z,68.60
2019-03-25T03:14:25.050Z,68.20
2019-03-25T03:16:55.665Z,68.00
2019-03-25T03:19:26.590Z,67.60
2019-03-25T03:21:57.401Z,67.30
2019-03-25T03:24:27.992Z,67.20
2019-03-25T03:26:58.611Z,67.50
2019-03-25T03:29:29.220Z,67.70
2019-03-25T03:31:59.835Z,68.10
2019-03-25T03:34:30.534Z,68.20
2019-03-25T03:37:02.679Z,68.80
2019-03-25T03:39:33.826Z,69.30
2019-03-25T03:42:04.530Z,69.10
2019-03-25T03:44:35.290Z,68.90
2019-03-25T03:47:05.918Z,69.10
2019-03-25T03:49:36.689Z,69.10
2019-03-25T03:52:07.311Z,69.10
2019-03-25T03:54:39.334Z,69.30
2019-03-25T03:57:10.936Z,68.90
2019-03-25T03:59:41.716Z,68.90
2019-03-25T04:02:12.445Z,69.00
2019-03-25T04:04:43.023Z,69.00
2019-03-25T04:07:13.637Z,69.10
2019-03-25T04:09:44.360Z,69.20
2019-03-25T04:12:15.496Z,69.30
2019-03-25T04:14:46.114Z,69.20
2019-03-25T04:17:16.802Z,69.30
2019-03-25T04:19:48.620Z,69.50
2019-03-25T04:22:19.267Z,70.00
2019-03-25T04:24:50.006Z,69.70
2019-03-25T04:27:23.251Z,69.70
2019-03-25T04:29:53.884Z,69.90
2019-03-25T04:32:24.998Z,70.10
2019-03-25T04:34:55.746Z,70.70
2019-03-25T04:37:26.653Z,71.00
2019-03-25T04:39:57.330Z,70.80
2019-03-25T04:42:28.271Z,71.60
2019-03-25T04:44:58.970Z,71.80
2019-03-25T04:47:29.749Z,72.10
2019-03-25T04:50:00.894Z,72.30
2019-03-25T04:52:31.610Z,72.50
2019-03-25T04:55:02.297Z,72.80
2019-03-25T04:57:34.410Z,74.20
2019-03-25T05:00:05.334Z,75.10
2019-03-25T05:02:36.130Z,76.00
2019-03-25T05:05:07.291Z,76.20
2019-03-25T05:07:37.915Z,76.50
2019-03-25T05:10:09.554Z,77.50
2019-03-25T05:12:40.316Z,77.90
2019-03-25T05:15:11.262Z,78.20
2019-03-25T05:17:41.959Z,77.80
2019-03-25T05:20:13.035Z,77.20
2019-03-25T05:22:43.790Z,77.90
2019-03-25T05:25:15.039Z,76.90
2019-03-25T05:27:45.652Z,76.80
2019-03-25T05:30:16.314Z,76.70
2019-03-25T05:32:47.090Z,76.30
2019-03-25T05:35:17.815Z,75.50
2019-03-25T05:37:48.495Z,75.60
2019-03-25T05:40:19.183Z,75.40
2019-03-25T05:42:49.774Z,75.30
2019-03-25T05:45:20.986Z,75.10
2019-03-25T05:47:51.633Z,74.80
2019-03-25T05:50:22.268Z,75.00
2019-03-25T05:52:53.055Z,75.60
2019-03-25T05:55:23.871Z,75.60
2019-03-25T05:57:54.633Z,76.10
2019-03-25T06:00:28.157Z,76.20
2019-03-25T06:02:58.871Z,77.30
2019-03-25T06:05:29.517Z,77.20
2019-03-25T06:08:00.565Z,76.50
2019-03-25T06:10:31.308Z,76.10
2019-03-25T06:13:02.038Z,77.00
2019-03-25T06:15:32.695Z,77.30
2019-03-25T06:18:03.485Z,77.00
2019-03-25T06:20:34.182Z,75.70
2019-03-25T06:23:04.778Z,75.50
2019-03-25T06:25:35.401Z,75.10
2019-03-25T06:28:06.145Z,74.10
2019-03-25T06:30:36.779Z,73.60
2019-03-25T06:33:12.606Z,72.90
2019-03-25T06:35:41.269Z,71.50
2019-03-25T06:38:12.032Z,70.40
2019-03-25T06:40:42.648Z,70.00
2019-03-25T06:43:13.297Z,69.70
2019-03-25T06:45:43.913Z,69.40
2019-03-25T06:48:14.817Z,68.90
2019-03-25T06:50:45.444Z,68.20
2019-03-25T06:53:16.232Z,67.60
2019-03-25T06:55:46.911Z,67.00
2019-03-25T06:58:17.605Z,66.50
2019-03-25T07:00:48.318Z,66.30
2019-03-25T07:03:19.480Z,65.80
2019-03-25T07:05:50.435Z,65.70
2019-03-25T07:08:21.022Z,65.60
2019-03-25T07:10:52.276Z,65.50
2019-03-25T07:13:23.023Z,65.30
2019-03-25T07:15:53.638Z,65.20
2019-03-25T07:18:24.296Z,64.90
2019-03-25T07:20:54.945Z,64.80
2019-03-25T07:23:25.657Z,64.30
2019-03-25T07:25:56.280Z,63.60
2019-03-25T07:28:26.862Z,60.80
2019-03-25T07:30:57.495Z,59.80
2019-03-25T07:33:28.225Z,59.40
2019-03-25T07:35:59.069Z,58.70
2019-03-25T07:38:29.714Z,58.70
2019-03-25T07:41:00.939Z,58.70
2019-03-25T07:43:31.576Z,59.80
2019-03-25T07:46:03.324Z,60.10
2019-03-25T07:48:33.962Z,60.70
2019-03-25T07:51:04.676Z,60.50
2019-03-25T07:53:35.909Z,59.00
2019-03-25T07:56:06.721Z,59.10
2019-03-25T07:58:37.740Z,59.40
2019-03-25T08:01:08.702Z,58.10
2019-03-25T08:03:39.925Z,58.80
2019-03-25T08:06:10.619Z,59.80
2019-03-25T08:08:41.625Z,61.00
2019-03-25T08:11:12.271Z,61.60
2019-03-25T08:16:24.278Z,62.40
2019-03-25T08:18:55.453Z,61.90
2019-03-25T08:21:26.030Z,61.80
2019-03-25T08:23:56.913Z,62.00
2019-03-25T08:26:28.947Z,60.30
2019-03-25T08:29:00.203Z,59.80
2019-03-25T08:31:30.998Z,59.40
2019-03-25T08:34:01.726Z,58.60
2019-03-25T08:36:36.082Z,56.80
2019-03-25T08:39:08.218Z,57.00
2019-03-25T08:41:43.982Z,56.20
2019-03-25T08:44:18.865Z,58.20
2019-03-25T08:46:49.871Z,56.40
2019-03-25T08:49:21.613Z,54.90
2019-03-25T08:51:52.674Z,52.70
2019-03-25T08:54:23.991Z,53.80
2019-03-25T08:56:54.790Z,52.80
2019-03-25T08:59:25.641Z,52.50
2019-03-25T09:01:56.556Z,52.60
2019-03-25T09:04:28.026Z,52.30
2019-03-25T09:06:58.988Z,51.40
2019-03-25T09:09:29.685Z,51.60
2019-03-25T09:12:01.064Z,50.90
2019-03-25T09:14:31.846Z,49.50
2019-03-25T09:17:02.786Z,49.40
2019-03-25T09:19:33.688Z,50.30
2019-03-25T09:22:04.493Z,50.50
2019-03-25T09:24:35.191Z,51.00
2019-03-25T09:27:05.963Z,49.90
2019-03-25T09:29:36.619Z,50.40
2019-03-25T09:32:07.380Z,48.70
2019-03-25T09:34:38.120Z,48.00
2019-03-25T09:37:10.007Z,48.60
2019-03-25T09:39:40.694Z,48.70
2019-03-25T09:42:11.604Z,49.60
2019-03-25T09:44:43.484Z,50.20
2019-03-25T09:47:14.298Z,51.60
2019-03-25T09:49:44.977Z,52.70
2019-03-25T09:52:16.338Z,53.90
2019-03-25T09:54:47.481Z,54.10
2019-03-25T09:57:19.602Z,56.80
2019-03-25T09:59:50.437Z,54.80
2019-03-25T10:02:21.264Z,56.40
2019-03-25T10:04:52.022Z,53.50
2019-03-25T10:07:24.811Z,51.80
2019-03-25T10:09:55.669Z,51.80
2019-03-25T10:12:26.922Z,52.80
2019-03-25T10:14:57.951Z,53.20
2019-03-25T10:17:28.860Z,52.30
2019-03-25T10:19:59.743Z,52.70
2019-03-25T10:22:31.820Z,52.00
2019-03-25T10:25:02.737Z,53.80
2019-03-25T10:27:33.726Z,53.90
2019-03-25T10:30:05.131Z,54.70
2019-03-25T10:32:37.179Z,52.70
2019-03-25T10:35:09.037Z,54.30
2019-03-25T10:37:39.848Z,52.40
2019-03-25T10:40:11.330Z,54.90
2019-03-25T10:42:42.282Z,52.80
2019-03-25T10:45:13.625Z,51.10
2019-03-25T10:47:44.583Z,52.30
2019-03-25T10:50:15.635Z,50.90
2019-03-25T10:52:46.627Z,50.30
2019-03-25T10:55:17.508Z,51.40
2019-03-25T10:57:48.210Z,52.50
2019-03-25T11:00:19.932Z,48.30
2019-03-25T11:02:50.928Z,49.80
2019-03-25T11:05:21.744Z,50.60
2019-03-25T11:07:52.451Z,50.90
2019-03-25T11:10:26.378Z,48.90
2019-03-25T11:12:57.210Z,49.30
2019-03-25T11:15:28.146Z,48.20
2019-03-25T11:17:58.895Z,49.10
2019-03-25T11:20:29.621Z,51.20
2019-03-25T11:23:01.206Z,52.50
2019-03-25T11:25:31.881Z,53.00
2019-03-25T11:28:03.091Z,55.10
2019-03-25T11:30:56.808Z,56.70
2019-03-25T11:33:27.797Z,58.10
2019-03-25T11:35:58.684Z,58.30
2019-03-25T11:38:29.536Z,58.80
2019-03-25T11:41:00.513Z,59.50
2019-03-25T11:43:31.663Z,62.10
2019-03-25T11:46:02.570Z,60.30
2019-03-25T11:48:33.458Z,59.30
2019-03-25T11:51:04.226Z,58.20
2019-03-25T11:53:34.870Z,57.30
2019-03-25T11:56:05.930Z,58.90
2019-03-25T11:58:37.293Z,58.90
2019-03-25T12:01:08.166Z,58.70
2019-03-25T12:03:38.912Z,59.40
2019-03-25T12:06:09.876Z,58.60
2019-03-25T12:08:40.524Z,56.90
2019-03-25T12:11:12.018Z,60.90
2019-03-25T12:13:44.066Z,67.00
2019-03-25T12:16:14.922Z,69.70
2019-03-25T12:18:45.939Z,69.50
2019-03-25T12:21:16.989Z,67.80
2019-03-25T12:23:48.419Z,68.70
2019-03-25T12:26:19.142Z,64.20
2019-03-25T12:28:49.852Z,59.90
2019-03-25T12:31:20.760Z,58.80
2019-03-25T12:33:51.606Z,55.40
2019-03-25T12:36:22.416Z,51.40
2019-03-25T12:38:53.496Z,50.40
2019-03-25T12:41:24.254Z,47.30
2019-03-25T12:43:54.970Z,44.40
2019-03-25T12:46:25.961Z,44.50
2019-03-25T12:48:56.931Z,48.00
2019-03-25T12:51:28.070Z,46.20
2019-03-25T12:53:58.888Z,45.30
2019-03-25T12:56:29.596Z,45.60
2019-03-25T12:59:00.401Z,45.80
2019-03-25T13:01:31.453Z,46.40
2019-03-25T13:04:02.438Z,46.70
2019-03-25T13:06:36.193Z,48.30
2019-03-25T13:09:09.139Z,48.70
2019-03-25T13:11:40.298Z,48.10
2019-03-25T13:14:11.094Z,49.00
2019-03-25T13:16:41.937Z,49.80
2019-03-25T13:19:12.807Z,48.60
2019-03-25T13:21:43.501Z,47.70
2019-03-25T13:24:14.561Z,47.90
2019-03-25T13:26:45.604Z,46.10
2019-03-25T13:29:16.786Z,46.60
2019-03-25T13:31:47.489Z,46.10
2019-03-25T13:34:18.290Z,45.40
2019-03-25T13:36:51.455Z,43.70
2019-03-25T13:39:22.762Z,44.30
2019-03-25T13:41:53.980Z,43.30
2019-03-25T13:44:27.759Z,42.10
2019-03-25T13:46:58.563Z,43.00
2019-03-25T13:49:29.364Z,43.10
2019-03-25T13:51:59.894Z,43.50
2019-03-25T13:54:31.057Z,42.70
2019-03-25T13:57:02.283Z,42.80
2019-03-25T13:59:33.125Z,43.60
2019-03-25T14:02:04.288Z,42.90
2019-03-25T14:04:35.314Z,43.30
2019-03-25T14:07:06.425Z,42.10
2019-03-25T14:09:37.049Z,43.80
2019-03-25T14:12:07.699Z,43.60
2019-03-25T14:14:38.277Z,43.30
2019-03-25T14:17:09.309Z,44.00
2019-03-25T14:19:41.013Z,44.80
2019-03-25T14:22:11.674Z,45.50
2019-03-25T14:24:42.348Z,45.80
2019-03-25T14:27:13.087Z,45.60
2019-03-25T14:29:43.894Z,45.60
2019-03-25T14:32:14.739Z,45.70
2019-03-25T14:34:45.418Z,45.80
2019-03-25T14:37:16.174Z,45.00
2019-03-25T14:39:46.933Z,45.40
2019-03-25T14:42:17.918Z,45.80
2019-03-25T14:44:48.592Z,45.40
2019-03-25T14:47:19.278Z,45.20
2019-03-25T14:49:52.443Z,45.40
2019-03-25T14:52:23.220Z,45.40
2019-03-25T14:54:53.956Z,45.70
2019-03-25T14:57:24.554Z,45.70
2019-03-25T14:59:55.238Z,47.10
2019-03-25T15:02:26.291Z,48.70
2019-03-25T15:04:57.075Z,49.00
2019-03-25T15:07:27.726Z,49.70
2019-03-25T15:09:58.604Z,50.00
2019-03-25T15:12:29.223Z,51.80
2019-03-25T15:15:00.051Z,51.60
2019-03-25T15:17:30.639Z,52.70
2019-03-25T15:20:02.181Z,53.60
2019-03-25T15:22:32.766Z,54.40
2019-03-25T15:25:03.444Z,54.60
2019-03-25T15:27:34.267Z,54.40
2019-03-25T15:30:05.379Z,55.20
2019-03-25T15:32:36.168Z,54.30
2019-03-25T15:35:08.608Z,54.30
2019-03-25T15:37:39.282Z,55.30
2019-03-25T15:40:11.363Z,55.60
2019-03-25T15:42:42.533Z,55.70
2019-03-25T15:45:13.545Z,56.40
2019-03-25T15:47:47.116Z,56.60
2019-03-25T15:50:17.359Z,56.50
2019-03-25T15:52:48.060Z,56.00
2019-03-25T15:55:18.822Z,55.00
2019-03-25T15:57:49.599Z,55.40
2019-03-25T16:00:20.998Z,55.00
2019-03-25T16:02:51.837Z,55.10
2019-03-25T16:05:22.869Z,55.30
2019-03-25T16:07:53.596Z,54.40
2019-03-25T16:10:24.725Z,54.60
2019-03-25T16:12:55.550Z,55.00
2019-03-25T16:15:43.947Z,55.90
2019-03-25T16:18:41.663Z,56.90
2019-03-25T16:21:12.671Z,56.90
2019-03-25T16:23:43.316Z,57.80
2019-03-25T16:26:14.330Z,57.50
2019-03-25T16:28:44.980Z,58.90
2019-03-25T16:31:15.663Z,60.90
2019-03-25T16:33:46.247Z,59.40
2019-03-25T16:36:17.001Z,59.40
2019-03-25T16:38:47.613Z,59.50
2019-03-25T16:41:18.542Z,59.50
2019-03-25T16:43:49.977Z,59.50
2019-03-25T16:46:20.960Z,59.20
2019-03-25T16:48:51.602Z,58.60
2019-03-25T16:51:22.316Z,58.50
2019-03-25T16:53:53.086Z,59.00
2019-03-25T16:56:23.838Z,59.40
2019-03-25T16:58:54.478Z,59.30
2019-03-25T17:01:25.117Z,60.30
2019-03-25T17:03:55.754Z,60.30
2019-03-25T17:06:26.355Z,60.70
2019-03-25T17:08:57.421Z,61.20
2019-03-25T17:11:28.314Z,61.50
2019-03-25T17:13:59.049Z,61.20
2019-03-25T17:16:29.693Z,60.50
2019-03-25T17:19:02.095Z,58.70
2019-03-25T17:21:32.606Z,58.50
2019-03-25T17:24:03.284Z,58.60
2019-03-25T17:26:41.955Z,56.20
2019-03-25T17:29:06.442Z,55.80
2019-03-25T17:31:37.736Z,56.10
2019-03-25T17:34:08.485Z,55.80
2019-03-25T17:36:39.640Z,55.10
2019-03-25T17:39:11.047Z,54.60
2019-03-25T17:41:41.709Z,54.00
2019-03-25T17:44:12.362Z,52.60
2019-03-25T17:46:43.761Z,52.90
2019-03-25T17:49:14.473Z,53.10
2019-03-25T17:51:45.199Z,52.30
2019-03-25T17:54:15.890Z,52.50
2019-03-25T17:56:46.515Z,52.50
2019-03-25T17:59:17.202Z,53.00
2019-03-25T18:01:48.666Z,53.20
2019-03-25T18:04:19.502Z,52.70
2019-03-25T18:06:50.260Z,53.10
2019-03-25T18:09:20.884Z,53.60
2019-03-25T18:11:51.762Z,54.30
2019-03-25T18:14:22.827Z,54.40
2019-03-25T18:16:53.728Z,54.40
2019-03-25T18:19:24.327Z,53.60
2019-03-25T18:21:54.968Z,53.70
2019-03-25T18:24:25.807Z,54.30
2019-03-25T18:26:56.419Z,55.10
2019-03-25T18:29:28.015Z,55.70
2019-03-25T18:31:58.876Z,55.70
2019-03-25T18:34:29.570Z,55.20
2019-03-25T18:37:00.194Z,55.10
2019-03-25T18:39:30.994Z,55.10
2019-03-25T18:42:02.562Z,55.70
2019-03-25T18:44:33.458Z,56.10
2019-03-25T18:47:04.229Z,51.30
2019-03-25T18:49:35.133Z,51.50
2019-03-25T18:52:06.159Z,57.80
2019-03-25T18:54:37.578Z,64.90
2019-03-25T18:57:08.354Z,64.00
2019-03-25T18:59:39.419Z,63.70
2019-03-25T19:02:10.305Z,64.10
2019-03-25T19:04:40.964Z,63.90
2019-03-25T19:07:11.525Z,65.80
2019-03-25T19:09:42.580Z,64.80
2019-03-25T19:12:13.252Z,67.40
2019-03-25T19:14:43.885Z,67.90
2019-03-25T19:17:14.728Z,68.10
2019-03-25T19:19:45.443Z,68.30
2019-03-25T19:22:16.234Z,68.30
2019-03-25T19:24:47.295Z,68.00
2019-03-25T19:27:17.966Z,67.50
2019-03-25T19:29:48.711Z,66.60
2019-03-25T19:32:19.386Z,67.40
2019-03-25T19:34:49.990Z,67.20
2019-03-25T19:37:20.629Z,67.70
2019-03-25T19:39:51.257Z,67.60
2019-03-25T19:42:22.184Z,67.70
2019-03-25T19:44:52.917Z,69.00
2019-03-25T19:47:23.700Z,70.10
2019-03-25T19:49:54.431Z,71.80
2019-03-25T19:52:25.479Z,71.90
2019-03-25T19:54:56.114Z,71.60
2019-03-25T19:57:28.421Z,71.60
2019-03-25T19:59:59.566Z,71.80
2019-03-25T20:02:30.291Z,72.40
2019-03-25T20:05:00.993Z,72.70
2019-03-25T20:07:33.320Z,72.90
2019-03-25T20:10:04.012Z,72.40
2019-03-25T20:12:34.674Z,71.60
2019-03-25T20:15:05.950Z,71.80
2019-03-25T20:17:36.904Z,71.80
2019-03-25T20:20:08.189Z,71.90
2019-03-25T20:22:38.772Z,71.80
2019-03-25T20:25:10.041Z,72.80
2019-03-25T20:27:40.665Z,73.00
2019-03-25T20:30:12.119Z,72.80
2019-03-25T20:32:43.047Z,73.90
2019-03-25T20:35:13.935Z,74.60
2019-03-25T20:37:45.438Z,74.70
2019-03-25T20:40:16.566Z,74.90
2019-03-25T20:42:47.533Z,75.50
2019-03-25T20:45:18.677Z,75.90
2019-03-25T20:47:54.354Z,76.30
2019-03-25T20:50:27.228Z,76.70
2019-03-25T20:52:59.667Z,76.90
2019-03-25T20:55:30.798Z,77.00
2019-03-25T20:58:01.982Z,77.30
2019-03-25T21:00:57.433Z,77.50
2019-03-25T21:03:29.488Z,77.50
2019-03-25T21:06:00.190Z,77.70
2019-03-25T21:08:31.511Z,77.60
2019-03-25T21:11:02.713Z,77.50
2019-03-25T21:13:33.631Z,79.30
2019-03-25T21:16:04.479Z,78.90
2019-03-25T21:18:35.126Z,79.00
2019-03-25T21:21:06.182Z,80.70
2019-03-25T21:23:37.083Z,81.40
2019-03-25T21:26:10.914Z,81.70
2019-03-25T21:28:40.918Z,82.80
2019-03-25T21:31:11.660Z,83.00
2019-03-25T21:33:43.701Z,83.50
2019-03-25T21:36:14.656Z,84.90
2019-03-25T21:38:45.509Z,85.80
2019-03-25T21:41:16.758Z,86.30
2019-03-25T21:43:47.901Z,87.00
2019-03-25T21:46:37.877Z,87.20
2019-03-25T21:49:09.492Z,87.80
2019-03-25T21:51:40.234Z,89.10
2019-03-25T21:54:10.932Z,89.70
2019-03-25T21:56:41.725Z,90.20
2019-03-25T21:59:12.389Z,90.30
2019-03-25T22:01:43.063Z,90.50
2019-03-25T22:04:13.925Z,90.90
2019-03-25T22:06:44.724Z,91.10
2019-03-25T22:09:15.890Z,91.10
2019-03-25T22:11:46.510Z,91.40
2019-03-25T22:14:17.486Z,91.60
2019-03-25T22:16:48.242Z,91.90
2019-03-25T22:19:18.890Z,92.00
2019-03-25T22:21:50.334Z,92.20
2019-03-25T22:24:22.133Z,93.00
2019-03-25T22:26:53.068Z,93.20
2019-03-25T22:29:24.066Z,93.50
2019-03-25T22:31:54.892Z,93.70
2019-03-25T22:34:26.009Z,94.20
2019-03-25T22:36:56.732Z,94.50
2019-03-25T22:39:27.627Z,95.00
2019-03-25T22:41:58.310Z,95.50
2019-03-25T22:44:29.164Z,95.80
2019-03-25T22:47:00.339Z,96.10
2019-03-25T22:49:31.668Z,96.60
2019-03-25T22:52:02.301Z,97.00
2019-03-25T22:54:33.393Z,97.30
2019-03-25T22:57:04.350Z,97.70
2019-03-25T22:59:35.616Z,98.20
2019-03-25T23:02:06.880Z,98.30
2019-03-25T23:04:38.766Z,98.50
2019-03-25T23:07:10.123Z,98.80
2019-03-25T23:09:41.047Z,98.80
2019-03-25T23:12:12.359Z,99.00
2019-03-25T23:14:43.080Z,99.20
2019-03-25T23:17:13.972Z,99.10
2019-03-25T23:19:45.080Z,99.70
2019-03-25T23:22:15.875Z,99.80
2019-03-25T23:24:48.018Z,99.90
2019-03-25T23:27:19.326Z,99.90
2019-03-25T23:29:49.988Z,99.90
2019-03-25T23:32:20.682Z,99.90
2019-03-25T23:34:51.360Z,99.90
2019-03-25T23:37:21.931Z,99.90
2019-03-25T23:39:52.566Z,99.90
2019-03-25T23:42:23.265Z,99.90
2019-03-25T23:44:53.910Z,99.90
2019-03-25T23:47:24.649Z,99.90
2019-03-25T23:49:55.816Z,99.90
2019-03-25T23:52:26.494Z,99.90
2019-03-25T23:54:57.404Z,99.90
2019-03-25T23:57:28.237Z,99.90
2019-03-25T23:59:59.020Z,99.90
